createdAt,value
2019-02-15T00:00:14.122Z,8.10
2019-02-15T00:01:14.109Z,8.30
2019-02-15T00:02:14.148Z,8.50
2019-02-15T00:03:14.113Z,8.70
2019-02-15T00:04:14.077Z,8.30
2019-02-15T00:05:14.065Z,8.00
2019-02-15T00:06:14.054Z,8.10
2019-02-15T00:07:14.044Z,8.50
2019-02-15T00:08:14.055Z,7.90
2019-02-15T00:09:14.025Z,8.10
2019-02-15T00:10:14.010Z,8.50
2019-02-15T00:11:14.000Z,8.50
2019-02-15T00:12:13.988Z,8.30
2019-02-15T00:13:14.030Z,8.50
2019-02-15T00:14:13.966Z,8.00
2019-02-15T00:15:13.957Z,7.70
2019-02-15T00:16:13.944Z,8.10
2019-02-15T00:17:13.932Z,7.90
2019-02-15T00:18:13.924Z,7.70
2019-02-15T00:19:13.936Z,7.40
2019-02-15T00:20:13.902Z,7.90
2019-02-15T00:21:13.890Z,7.50
2019-02-15T00:22:13.879Z,7.80
2019-02-15T00:23:13.866Z,8.10
2019-02-15T00:24:13.879Z,8.40
2019-02-15T00:25:13.843Z,8.00
2019-02-15T00:26:13.834Z,7.90
2019-02-15T00:27:13.821Z,7.80
2019-02-15T00:28:13.813Z,7.90
2019-02-15T00:29:13.823Z,8.30
2019-02-15T00:30:13.789Z,9.10
2019-02-15T00:31:13.776Z,9.20
2019-02-15T00:32:13.771Z,8.60
2019-02-15T00:33:13.760Z,8.30
2019-02-15T00:34:13.767Z,7.90
2019-02-15T00:35:13.733Z,7.40
2019-02-15T00:36:13.718Z,7.40
2019-02-15T00:37:13.709Z,7.20
2019-02-15T00:38:13.703Z,7.10
2019-02-15T00:39:13.712Z,7.50
2019-02-15T00:40:13.675Z,6.60
2019-02-15T00:41:13.663Z,7.60
2019-02-15T00:42:13.654Z,7.00
2019-02-15T00:43:21.918Z,7.00
2019-02-15T00:44:14.653Z,7.00
2019-02-15T00:45:13.618Z,6.90
2019-02-15T00:46:13.607Z,7.50
2019-02-15T00:47:13.597Z,6.80
2019-02-15T00:48:13.586Z,6.70
2019-02-15T00:49:13.598Z,7.00
2019-02-15T00:50:13.568Z,6.60
2019-02-15T00:51:13.552Z,7.00
2019-02-15T00:52:13.538Z,6.90
2019-02-15T00:53:13.529Z,6.80
2019-02-15T00:54:13.541Z,7.10
2019-02-15T00:55:13.506Z,6.90
2019-02-15T00:56:13.493Z,6.80
2019-02-15T00:57:13.483Z,6.40
2019-02-15T00:58:13.470Z,6.90
2019-02-15T00:59:13.485Z,7.20
2019-02-15T01:00:13.456Z,7.10
2019-02-15T01:01:13.437Z,7.00
2019-02-15T01:02:13.428Z,6.70
2019-02-15T01:03:13.416Z,7.00
2019-02-15T01:04:13.430Z,6.50
2019-02-15T01:05:13.393Z,6.90
2019-02-15T01:06:13.381Z,6.70
2019-02-15T01:07:13.370Z,8.00
2019-02-15T01:08:13.359Z,6.40
2019-02-15T01:09:13.374Z,6.80
2019-02-15T01:10:13.336Z,6.60
2019-02-15T01:11:13.326Z,7.40
2019-02-15T01:12:13.315Z,6.70
2019-02-15T01:13:13.304Z,6.90
2019-02-15T01:14:13.317Z,6.40
2019-02-15T01:15:13.279Z,7.00
2019-02-15T01:16:13.270Z,7.10
2019-02-15T01:17:13.263Z,6.60
2019-02-15T01:18:13.251Z,6.60
2019-02-15T01:19:13.258Z,6.90
2019-02-15T01:20:13.225Z,7.40
2019-02-15T01:21:13.214Z,6.50
2019-02-15T01:22:13.203Z,6.70
2019-02-15T01:23:13.191Z,6.70
2019-02-15T01:24:13.205Z,7.00
2019-02-15T01:25:13.170Z,6.60
2019-02-15T01:26:13.158Z,6.60
2019-02-15T01:27:13.147Z,7.10
2019-02-15T01:28:13.136Z,6.40
2019-02-15T01:29:13.154Z,6.90
2019-02-15T01:30:13.113Z,7.10
2019-02-15T01:31:13.102Z,6.20
2019-02-15T01:32:13.090Z,7.10
2019-02-15T01:33:13.081Z,6.80
2019-02-15T01:34:13.095Z,6.40
2019-02-15T01:35:13.055Z,6.70
2019-02-15T01:36:13.045Z,6.70
2019-02-15T01:37:13.035Z,6.40
2019-02-15T01:38:13.024Z,7.10
2019-02-15T01:39:13.037Z,6.60
2019-02-15T01:40:13.000Z,6.40
2019-02-15T01:41:12.990Z,6.00
2019-02-15T01:42:12.979Z,6.20
2019-02-15T01:43:12.966Z,6.40
2019-02-15T01:44:12.981Z,6.80
2019-02-15T01:45:12.944Z,7.10
2019-02-15T01:46:12.934Z,6.40
2019-02-15T01:47:12.925Z,6.60
2019-02-15T01:48:12.911Z,6.60
2019-02-15T01:49:12.926Z,6.70
2019-02-15T01:50:12.887Z,5.80
2019-02-15T01:51:12.877Z,6.70
2019-02-15T01:52:12.867Z,6.50
2019-02-15T01:53:12.854Z,6.70
2019-02-15T01:54:12.870Z,6.70
2019-02-15T01:55:12.833Z,6.00
2019-02-15T01:56:12.828Z,6.90
2019-02-15T01:57:12.861Z,7.20
2019-02-15T01:58:12.799Z,7.40
2019-02-15T01:59:12.791Z,7.10
2019-02-15T02:00:12.805Z,6.90
2019-02-15T02:01:12.768Z,7.60
2019-02-15T02:02:12.755Z,7.80
2019-02-15T02:03:12.743Z,7.20
2019-02-15T02:04:12.739Z,7.00
2019-02-15T02:05:12.746Z,7.80
2019-02-15T02:06:12.709Z,7.50
2019-02-15T02:07:12.699Z,9.50
2019-02-15T02:08:12.688Z,8.40
2019-02-15T02:09:12.678Z,8.80
2019-02-15T02:10:12.692Z,7.40
2019-02-15T02:11:12.654Z,6.50
2019-02-15T02:12:12.642Z,7.60
2019-02-15T02:13:12.632Z,7.10
2019-02-15T02:14:12.623Z,7.10
2019-02-15T02:15:12.633Z,8.00
2019-02-15T02:16:12.597Z,9.10
2019-02-15T02:17:12.589Z,8.90
2019-02-15T02:18:12.581Z,8.20
2019-02-15T02:19:12.566Z,8.00
2019-02-15T02:20:12.581Z,6.80
2019-02-15T02:21:12.544Z,7.10
2019-02-15T02:22:12.531Z,7.10
2019-02-15T02:23:12.520Z,6.90
2019-02-15T02:24:12.512Z,7.00
2019-02-15T02:25:12.525Z,7.30
2019-02-15T02:26:12.487Z,7.60
2019-02-15T02:27:12.473Z,7.00
2019-02-15T02:28:12.464Z,7.30
2019-02-15T02:29:12.453Z,7.60
2019-02-15T02:30:12.468Z,7.20
2019-02-15T02:31:12.430Z,6.00
2019-02-15T02:32:12.442Z,6.70
2019-02-15T02:33:12.409Z,5.90
2019-02-15T02:34:12.408Z,5.40
2019-02-15T02:35:12.414Z,6.30
2019-02-15T02:36:12.376Z,5.60
2019-02-15T02:37:12.370Z,5.80
2019-02-15T02:38:12.361Z,5.50
2019-02-15T02:39:12.344Z,6.00
2019-02-15T02:40:12.358Z,5.10
2019-02-15T02:41:12.322Z,5.00
2019-02-15T02:42:12.310Z,5.30
2019-02-15T02:43:12.296Z,4.80
2019-02-15T02:44:12.283Z,4.90
2019-02-15T02:45:12.297Z,4.90
2019-02-15T02:46:12.262Z,4.90
2019-02-15T02:47:12.249Z,4.60
2019-02-15T02:48:12.273Z,4.30
2019-02-15T02:49:12.228Z,4.50
2019-02-15T02:50:12.259Z,4.50
2019-02-15T02:51:12.204Z,4.90
2019-02-15T02:52:12.194Z,4.90
2019-02-15T02:53:12.183Z,4.90
2019-02-15T02:54:12.175Z,5.50
2019-02-15T02:55:12.184Z,4.30
2019-02-15T02:56:12.161Z,4.30
2019-02-15T02:57:12.141Z,4.70
2019-02-15T02:58:12.127Z,4.90
2019-02-15T02:59:12.145Z,4.50
2019-02-15T03:00:12.131Z,4.50
2019-02-15T03:01:12.093Z,5.20
2019-02-15T03:02:12.082Z,4.90
2019-02-15T03:03:12.070Z,4.10
2019-02-15T03:04:12.060Z,4.60
2019-02-15T03:05:12.074Z,4.40
2019-02-15T03:06:12.037Z,4.50
2019-02-15T03:07:12.033Z,4.40
2019-02-15T03:08:12.015Z,4.40
2019-02-15T03:09:12.010Z,4.70
2019-02-15T03:10:12.018Z,4.50
2019-02-15T03:11:11.982Z,4.60
2019-02-15T03:12:11.970Z,4.40
2019-02-15T03:13:11.963Z,5.00
2019-02-15T03:14:12.067Z,4.70
2019-02-15T03:15:11.969Z,4.90
2019-02-15T03:16:11.929Z,5.00
2019-02-15T03:17:11.914Z,4.50
2019-02-15T03:18:11.959Z,4.90
2019-02-15T03:19:11.890Z,4.70
2019-02-15T03:20:11.906Z,4.80
2019-02-15T03:21:11.868Z,4.70
2019-02-15T03:22:11.919Z,4.90
2019-02-15T03:23:11.850Z,4.80
2019-02-15T03:24:11.838Z,4.50
2019-02-15T03:25:11.847Z,4.90
2019-02-15T03:26:11.816Z,4.60
2019-02-15T03:27:11.802Z,4.70
2019-02-15T03:28:11.792Z,4.60
2019-02-15T03:29:11.781Z,4.50
2019-02-15T03:30:11.809Z,4.70
2019-02-15T03:31:11.760Z,4.70
2019-02-15T03:32:11.762Z,4.60
2019-02-15T03:33:11.741Z,4.50
2019-02-15T03:34:11.733Z,4.60
2019-02-15T03:35:11.768Z,4.80
2019-02-15T03:36:11.738Z,4.90
2019-02-15T03:37:11.693Z,4.70
2019-02-15T03:38:11.678Z,5.10
2019-02-15T03:39:11.669Z,5.10
2019-02-15T03:40:11.682Z,4.80
2019-02-15T03:41:11.646Z,4.90
2019-02-15T03:42:11.633Z,5.00
2019-02-15T03:43:11.628Z,4.80
2019-02-15T03:44:21.404Z,4.70
2019-02-15T03:45:12.614Z,5.10
2019-02-15T03:46:11.617Z,5.10
2019-02-15T03:47:11.580Z,5.30
2019-02-15T03:48:11.569Z,5.20
2019-02-15T03:49:11.556Z,6.00
2019-02-15T03:50:11.550Z,5.00
2019-02-15T03:51:11.558Z,4.90
2019-02-15T03:52:11.527Z,4.70
2019-02-15T03:53:11.511Z,4.70
2019-02-15T03:54:11.505Z,5.00
2019-02-15T03:55:11.496Z,5.40
2019-02-15T03:56:11.512Z,5.30
2019-02-15T03:57:11.467Z,5.20
2019-02-15T03:58:11.466Z,5.30
2019-02-15T03:59:11.447Z,5.80
2019-02-15T04:00:11.435Z,5.40
2019-02-15T04:01:11.450Z,6.10
2019-02-15T04:02:11.412Z,5.90
2019-02-15T04:03:11.404Z,5.90
2019-02-15T04:04:11.389Z,6.20
2019-02-15T04:05:11.385Z,6.10
2019-02-15T04:06:11.392Z,6.30
2019-02-15T04:07:11.364Z,6.20
2019-02-15T04:08:11.346Z,6.40
2019-02-15T04:09:11.335Z,6.70
2019-02-15T04:10:11.323Z,6.80
2019-02-15T04:11:11.336Z,6.70
2019-02-15T04:12:11.303Z,7.10
2019-02-15T04:13:11.291Z,7.20
2019-02-15T04:14:11.279Z,8.00
2019-02-15T04:15:11.266Z,6.90
2019-02-15T04:16:11.279Z,7.70
2019-02-15T04:17:11.249Z,7.10
2019-02-15T04:18:11.251Z,7.30
2019-02-15T04:19:11.224Z,7.20
2019-02-15T04:20:11.220Z,6.80
2019-02-15T04:21:11.227Z,7.00
2019-02-15T04:22:11.193Z,6.70
2019-02-15T04:23:11.177Z,7.60
2019-02-15T04:24:13.381Z,7.50
2019-02-15T04:25:11.156Z,7.00
2019-02-15T04:26:11.171Z,7.80
2019-02-15T04:27:11.136Z,7.60
2019-02-15T04:28:11.121Z,7.40
2019-02-15T04:29:11.115Z,7.60
2019-02-15T04:30:11.100Z,8.90
2019-02-15T04:31:11.112Z,8.60
2019-02-15T04:32:11.076Z,7.70
2019-02-15T04:33:11.066Z,8.00
2019-02-15T04:34:11.060Z,8.00
2019-02-15T04:35:11.044Z,8.60
2019-02-15T04:36:11.059Z,7.90
2019-02-15T04:37:11.020Z,7.90
2019-02-15T04:38:11.012Z,7.70
2019-02-15T04:39:11.002Z,7.70
2019-02-15T04:40:10.989Z,7.30
2019-02-15T04:41:11.003Z,7.20
2019-02-15T04:42:10.972Z,7.90
2019-02-15T04:43:10.955Z,8.00
2019-02-15T04:44:10.944Z,7.10
2019-02-15T04:45:10.932Z,7.50
2019-02-15T04:46:10.945Z,7.10
2019-02-15T04:47:10.914Z,6.70
2019-02-15T04:48:10.898Z,7.30
2019-02-15T04:49:10.888Z,7.00
2019-02-15T04:50:10.878Z,7.80
2019-02-15T04:51:10.891Z,7.30
2019-02-15T04:52:10.863Z,7.60
2019-02-15T04:53:10.844Z,8.10
2019-02-15T04:54:10.831Z,7.70
2019-02-15T04:55:10.820Z,7.60
2019-02-15T04:56:10.837Z,7.40
2019-02-15T04:57:10.800Z,8.10
2019-02-15T04:58:10.854Z,8.30
2019-02-15T04:59:10.780Z,7.70
2019-02-15T05:00:10.769Z,7.90
2019-02-15T05:01:10.832Z,8.10
2019-02-15T05:02:10.742Z,8.60
2019-02-15T05:03:10.732Z,8.90
2019-02-15T05:04:10.719Z,8.20
2019-02-15T05:05:10.710Z,8.10
2019-02-15T05:06:10.722Z,9.10
2019-02-15T05:07:10.686Z,8.80
2019-02-15T05:08:10.678Z,8.30
2019-02-15T05:09:10.668Z,8.50
2019-02-15T05:10:10.655Z,8.60
2019-02-15T05:11:10.666Z,8.00
2019-02-15T05:12:10.631Z,7.70
2019-02-15T05:13:10.621Z,7.60
2019-02-15T05:14:10.634Z,8.50
2019-02-15T05:15:10.597Z,8.10
2019-02-15T05:16:10.612Z,8.30
2019-02-15T05:17:10.574Z,8.20
2019-02-15T05:18:10.564Z,8.20
2019-02-15T05:19:10.555Z,8.60
2019-02-15T05:20:10.541Z,7.60
2019-02-15T05:21:12.530Z,7.70
2019-02-15T05:22:10.520Z,8.10
2019-02-15T05:23:10.509Z,8.50
2019-02-15T05:24:10.498Z,7.70
2019-02-15T05:25:10.486Z,8.20
2019-02-15T05:26:10.479Z,8.30
2019-02-15T05:27:10.490Z,8.10
2019-02-15T05:28:10.454Z,8.10
2019-02-15T05:29:10.440Z,8.30
2019-02-15T05:30:10.428Z,7.70
2019-02-15T05:31:10.443Z,8.20
2019-02-15T05:32:10.412Z,8.50
2019-02-15T05:33:10.407Z,7.90
2019-02-15T05:34:10.386Z,8.00
2019-02-15T05:35:10.373Z,8.20
2019-02-15T05:36:10.365Z,7.80
2019-02-15T05:37:10.376Z,7.10
2019-02-15T05:38:10.338Z,8.10
2019-02-15T05:39:10.330Z,7.60
2019-02-15T05:40:10.318Z,9.40
2019-02-15T05:41:10.307Z,9.40
2019-02-15T05:42:10.317Z,9.20
2019-02-15T05:43:10.284Z,8.90
2019-02-15T05:44:10.273Z,8.40
2019-02-15T05:45:10.262Z,8.60
2019-02-15T05:46:10.255Z,8.80
2019-02-15T05:47:10.269Z,9.50
2019-02-15T05:48:10.226Z,9.60
2019-02-15T05:49:10.221Z,9.30
2019-02-15T05:50:10.206Z,9.00
2019-02-15T05:51:10.195Z,8.80
2019-02-15T05:52:10.207Z,9.30
2019-02-15T05:53:10.172Z,9.10
2019-02-15T05:54:10.165Z,8.50
2019-02-15T05:55:10.154Z,8.10
2019-02-15T05:56:10.143Z,7.90
2019-02-15T05:57:10.158Z,7.90
2019-02-15T05:58:10.115Z,8.50
2019-02-15T05:59:10.103Z,8.20
2019-02-15T06:00:10.094Z,7.70
2019-02-15T06:01:10.085Z,9.60
2019-02-15T06:02:10.095Z,9.30
2019-02-15T06:03:10.061Z,8.60
2019-02-15T06:04:10.050Z,9.20
2019-02-15T06:05:10.061Z,8.60
2019-02-15T06:06:10.027Z,7.90
2019-02-15T06:07:10.040Z,8.30
2019-02-15T06:08:10.004Z,8.50
2019-02-15T06:09:09.994Z,7.90
2019-02-15T06:10:09.981Z,8.00
2019-02-15T06:11:09.976Z,7.50
2019-02-15T06:12:09.985Z,7.70
2019-02-15T06:13:09.951Z,7.50
2019-02-15T06:14:09.939Z,8.50
2019-02-15T06:15:15.330Z,9.30
2019-02-15T06:16:10.914Z,9.50
2019-02-15T06:17:09.933Z,9.30
2019-02-15T06:18:09.894Z,8.80
2019-02-15T06:19:09.881Z,8.80
2019-02-15T06:20:09.869Z,8.70
2019-02-15T06:21:09.860Z,9.00
2019-02-15T06:22:10.623Z,8.80
2019-02-15T06:23:09.837Z,8.60
2019-02-15T06:24:09.826Z,8.10
2019-02-15T06:25:09.813Z,8.50
2019-02-15T06:26:09.804Z,8.00
2019-02-15T06:27:09.816Z,8.50
2019-02-15T06:28:10.539Z,8.10
2019-02-15T06:29:09.769Z,7.90
2019-02-15T06:30:09.761Z,8.10
2019-02-15T06:31:09.753Z,7.90
2019-02-15T06:32:09.790Z,7.60
2019-02-15T06:33:09.724Z,7.60
2019-02-15T06:34:09.721Z,7.20
2019-02-15T06:35:09.708Z,8.00
2019-02-15T06:36:09.691Z,8.40
2019-02-15T06:37:09.704Z,8.50
2019-02-15T06:38:09.671Z,8.40
2019-02-15T06:39:09.658Z,8.90
2019-02-15T06:40:09.646Z,8.10
2019-02-15T06:41:09.644Z,8.00
2019-02-15T06:42:09.654Z,8.00
2019-02-15T06:43:09.612Z,7.90
2019-02-15T06:44:09.602Z,7.50
2019-02-15T06:45:09.590Z,7.60
2019-02-15T06:46:09.580Z,7.50
2019-02-15T06:47:09.596Z,7.70
2019-02-15T06:48:09.556Z,7.70
2019-02-15T06:49:09.551Z,8.20
2019-02-15T06:50:09.570Z,8.60
2019-02-15T06:51:09.524Z,7.50
2019-02-15T06:52:09.544Z,7.90
2019-02-15T06:53:10.126Z,7.70
2019-02-15T06:54:09.488Z,7.60
2019-02-15T06:55:09.483Z,7.20
2019-02-15T06:56:09.471Z,7.70
2019-02-15T06:57:09.481Z,9.10
2019-02-15T06:58:09.445Z,8.60
2019-02-15T06:59:09.433Z,8.70
2019-02-15T07:00:09.427Z,8.30
2019-02-15T07:01:09.410Z,8.60
2019-02-15T07:02:09.426Z,7.90
2019-02-15T07:03:09.389Z,8.10
2019-02-15T07:04:09.379Z,7.90
2019-02-15T07:05:09.367Z,9.60
2019-02-15T07:06:09.355Z,9.40
2019-02-15T07:07:09.369Z,9.30
2019-02-15T07:08:09.331Z,9.60
2019-02-15T07:09:09.339Z,10.80
2019-02-15T07:10:09.311Z,11.90
2019-02-15T07:11:09.302Z,11.00
2019-02-15T07:12:09.291Z,10.80
2019-02-15T07:13:09.303Z,10.30
2019-02-15T07:14:09.265Z,9.30
2019-02-15T07:15:09.254Z,8.30
2019-02-15T07:16:09.246Z,8.80
2019-02-15T07:17:09.233Z,8.70
2019-02-15T07:18:09.244Z,8.60
2019-02-15T07:19:09.210Z,8.40
2019-02-15T07:20:09.200Z,7.90
2019-02-15T07:21:09.194Z,8.30
2019-02-15T07:22:09.179Z,8.40
2019-02-15T07:23:09.189Z,8.40
2019-02-15T07:24:09.152Z,8.50
2019-02-15T07:25:09.146Z,8.10
2019-02-15T07:26:09.130Z,8.60
2019-02-15T07:27:09.121Z,8.70
2019-02-15T07:28:09.139Z,8.50
2019-02-15T07:29:09.097Z,8.90
2019-02-15T07:30:09.169Z,8.60
2019-02-15T07:31:09.081Z,8.80
2019-02-15T07:32:09.067Z,8.60
2019-02-15T07:33:09.077Z,8.00
2019-02-15T07:34:09.080Z,8.00
2019-02-15T07:35:09.031Z,8.20
2019-02-15T07:36:09.018Z,7.90
2019-02-15T07:37:09.013Z,7.00
2019-02-15T07:38:09.026Z,8.50
2019-02-15T07:39:08.988Z,8.40
2019-02-15T07:40:08.976Z,8.00
2019-02-15T07:41:08.965Z,7.80
2019-02-15T07:42:08.952Z,7.50
2019-02-15T07:43:08.967Z,7.50
2019-02-15T07:44:08.928Z,8.20
2019-02-15T07:45:08.917Z,7.80
2019-02-15T07:46:08.906Z,6.90
2019-02-15T07:47:08.896Z,7.90
2019-02-15T07:48:08.966Z,7.90
2019-02-15T07:49:08.877Z,7.60
2019-02-15T07:50:08.865Z,8.40
2019-02-15T07:51:09.894Z,8.10
2019-02-15T07:52:08.839Z,8.20
2019-02-15T07:53:09.212Z,8.10
2019-02-15T07:54:08.816Z,8.00
2019-02-15T07:55:08.805Z,7.00
2019-02-15T07:56:08.801Z,6.60
2019-02-15T07:57:08.782Z,7.20
2019-02-15T07:58:08.795Z,6.90
2019-02-15T07:59:08.762Z,7.30
2019-02-15T08:00:08.756Z,7.00
2019-02-15T08:01:08.738Z,7.40
2019-02-15T08:02:08.732Z,7.10
2019-02-15T08:03:08.741Z,7.90
2019-02-15T08:04:08.705Z,8.10
2019-02-15T08:05:08.697Z,7.80
2019-02-15T08:06:08.685Z,7.00
2019-02-15T08:07:08.670Z,7.70
2019-02-15T08:08:08.684Z,7.30
2019-02-15T08:09:10.592Z,7.20
2019-02-15T08:10:08.640Z,7.10
2019-02-15T08:11:08.629Z,7.40
2019-02-15T08:12:08.616Z,7.80
2019-02-15T08:13:08.732Z,7.50
2019-02-15T08:14:14.528Z,7.00
2019-02-15T08:15:09.583Z,7.40
2019-02-15T08:16:08.573Z,7.30
2019-02-15T08:17:08.559Z,8.50
2019-02-15T08:18:08.579Z,7.50
2019-02-15T08:19:08.538Z,7.40
2019-02-15T08:20:08.526Z,7.90
2019-02-15T08:21:08.515Z,7.60
2019-02-15T08:22:08.506Z,8.40
2019-02-15T08:23:08.515Z,8.30
2019-02-15T08:24:08.543Z,8.00
2019-02-15T08:25:08.472Z,7.40
2019-02-15T08:26:08.458Z,7.60
2019-02-15T08:27:08.446Z,7.10
2019-02-15T08:28:08.464Z,7.30
2019-02-15T08:29:08.424Z,7.90
2019-02-15T08:30:08.416Z,7.60
2019-02-15T08:31:08.401Z,7.30
2019-02-15T08:32:08.392Z,7.40
2019-02-15T08:33:08.412Z,7.50
2019-02-15T08:34:08.370Z,9.50
2019-02-15T08:35:08.356Z,9.20
2019-02-15T08:36:08.347Z,9.20
2019-02-15T08:37:08.338Z,8.70
2019-02-15T08:38:08.349Z,9.30
2019-02-15T08:39:08.317Z,10.20
2019-02-15T08:40:08.302Z,8.50
2019-02-15T08:41:08.291Z,8.30
2019-02-15T08:42:08.278Z,8.00
2019-02-15T08:43:08.643Z,7.60
2019-02-15T08:44:08.259Z,7.90
2019-02-15T08:45:08.248Z,7.60
2019-02-15T08:46:08.285Z,7.30
2019-02-15T08:47:08.222Z,7.10
2019-02-15T08:48:08.237Z,7.60
2019-02-15T08:49:08.203Z,7.80
2019-02-15T08:50:08.189Z,6.90
2019-02-15T08:51:08.177Z,7.60
2019-02-15T08:52:08.179Z,6.70
2019-02-15T08:53:08.181Z,7.30
2019-02-15T08:54:08.168Z,7.60
2019-02-15T08:55:08.165Z,7.40
2019-02-15T08:56:08.123Z,7.30
2019-02-15T08:57:08.167Z,7.50
2019-02-15T08:58:08.105Z,7.70
2019-02-15T08:59:08.119Z,7.70
2019-02-15T09:00:08.079Z,7.80
2019-02-15T09:01:08.071Z,8.00
2019-02-15T09:02:08.059Z,8.20
2019-02-15T09:03:08.057Z,8.10
2019-02-15T09:04:08.060Z,7.60
2019-02-15T09:05:08.038Z,7.10
2019-02-15T09:06:08.013Z,7.30
2019-02-15T09:07:08.001Z,7.40
2019-02-15T09:08:07.992Z,7.20
2019-02-15T09:09:08.017Z,7.00
2019-02-15T09:10:07.972Z,7.50
2019-02-15T09:11:07.958Z,8.00
2019-02-15T09:12:07.953Z,7.80
2019-02-15T09:13:07.940Z,7.60
2019-02-15T09:14:07.953Z,8.10
2019-02-15T09:15:07.915Z,7.80
2019-02-15T09:16:10.329Z,7.90
2019-02-15T09:17:07.897Z,7.80
2019-02-15T09:18:07.881Z,7.50
2019-02-15T09:19:07.902Z,7.10
2019-02-15T09:20:07.858Z,7.50
2019-02-15T09:21:07.849Z,7.20
2019-02-15T09:22:07.839Z,7.00
2019-02-15T09:23:07.827Z,7.40
2019-02-15T09:24:07.842Z,7.40
2019-02-15T09:25:07.804Z,7.80
2019-02-15T09:26:07.791Z,7.40
2019-02-15T09:27:07.781Z,7.20
2019-02-15T09:28:07.767Z,7.00
2019-02-15T09:29:07.781Z,7.20
2019-02-15T09:30:07.751Z,7.30
2019-02-15T09:31:07.738Z,7.10
2019-02-15T09:32:07.728Z,7.30
2019-02-15T09:33:07.710Z,6.50
2019-02-15T09:34:07.737Z,6.60
2019-02-15T09:35:07.690Z,7.40
2019-02-15T09:36:07.678Z,6.70
2019-02-15T09:37:07.664Z,7.00
2019-02-15T09:38:07.655Z,7.40
2019-02-15T09:39:07.669Z,7.10
2019-02-15T09:40:07.636Z,7.50
2019-02-15T09:41:07.621Z,7.30
2019-02-15T09:42:07.609Z,7.10
2019-02-15T09:43:07.599Z,7.30
2019-02-15T09:44:07.619Z,7.30
2019-02-15T09:45:07.576Z,8.10
2019-02-15T09:46:07.566Z,8.00
2019-02-15T09:47:07.550Z,8.50
2019-02-15T09:48:07.540Z,9.70
2019-02-15T09:49:07.556Z,9.80
2019-02-15T09:50:09.227Z,9.20
2019-02-15T09:51:07.519Z,8.20
2019-02-15T09:52:07.500Z,8.30
2019-02-15T09:53:07.485Z,7.60
2019-02-15T09:54:07.493Z,8.00
2019-02-15T09:55:07.457Z,8.00
2019-02-15T09:56:07.451Z,7.70
2019-02-15T09:57:07.434Z,7.60
2019-02-15T09:58:07.430Z,8.10
2019-02-15T09:59:07.435Z,7.60
2019-02-15T10:00:07.401Z,7.60
2019-02-15T10:01:07.388Z,7.90
2019-02-15T10:02:07.376Z,8.00
2019-02-15T10:03:07.371Z,7.90
2019-02-15T10:04:07.379Z,7.60
2019-02-15T10:05:07.343Z,7.80
2019-02-15T10:06:07.334Z,7.70
2019-02-15T10:07:07.319Z,7.40
2019-02-15T10:08:07.308Z,7.40
2019-02-15T10:09:07.323Z,7.80
2019-02-15T10:10:07.287Z,7.90
2019-02-15T10:11:07.276Z,7.80
2019-02-15T10:12:07.266Z,8.00
2019-02-15T10:13:07.255Z,8.00
2019-02-15T10:14:07.265Z,7.90
2019-02-15T10:15:07.231Z,7.70
2019-02-15T10:16:07.219Z,8.30
2019-02-15T10:17:07.207Z,9.10
2019-02-15T10:18:07.197Z,8.40
2019-02-15T10:19:07.212Z,8.10
2019-02-15T10:20:07.174Z,7.90
2019-02-15T10:21:07.163Z,6.60
2019-02-15T10:22:07.150Z,7.00
2019-02-15T10:23:07.140Z,6.80
2019-02-15T10:24:07.172Z,7.00
2019-02-15T10:25:07.116Z,7.00
2019-02-15T10:26:07.105Z,7.70
2019-02-15T10:27:07.095Z,6.70
2019-02-15T10:28:07.129Z,7.30
2019-02-15T10:29:07.073Z,6.20
2019-02-15T10:30:07.084Z,7.20
2019-02-15T10:31:07.050Z,5.90
2019-02-15T10:32:07.040Z,6.90
2019-02-15T10:33:07.026Z,8.70
2019-02-15T10:34:07.042Z,9.00
2019-02-15T10:35:07.004Z,8.10
2019-02-15T10:36:06.992Z,7.50
2019-02-15T10:37:06.981Z,9.50
2019-02-15T10:38:06.970Z,8.00
2019-02-15T10:39:07.018Z,8.20
2019-02-15T10:40:06.974Z,7.30
2019-02-15T10:41:06.939Z,7.20
2019-02-15T10:42:06.928Z,7.20
2019-02-15T10:43:06.915Z,6.40
2019-02-15T10:44:06.907Z,6.10
2019-02-15T10:45:06.917Z,6.70
2019-02-15T10:46:06.883Z,6.50
2019-02-15T10:47:13.819Z,6.80
2019-02-15T10:48:07.856Z,7.60
2019-02-15T10:49:06.858Z,7.30
2019-02-15T10:50:06.862Z,6.90
2019-02-15T10:51:06.824Z,6.50
2019-02-15T10:52:06.816Z,6.00
2019-02-15T10:53:06.801Z,6.60
2019-02-15T10:54:06.792Z,6.00
2019-02-15T10:55:06.803Z,7.40
2019-02-15T10:56:06.768Z,6.60
2019-02-15T10:57:06.756Z,6.40
2019-02-15T10:58:06.746Z,6.20
2019-02-15T10:59:06.736Z,7.10
2019-02-15T11:00:06.809Z,5.90
2019-02-15T11:01:06.713Z,6.80
2019-02-15T11:02:06.703Z,5.90
2019-02-15T11:03:06.691Z,5.90
2019-02-15T11:04:06.683Z,5.70
2019-02-15T11:05:06.694Z,5.20
2019-02-15T11:06:06.655Z,5.50
2019-02-15T11:07:06.646Z,5.30
2019-02-15T11:08:06.634Z,5.90
2019-02-15T11:09:06.626Z,5.80
2019-02-15T11:10:06.634Z,5.10
2019-02-15T11:11:06.600Z,5.20
2019-02-15T11:12:06.587Z,5.60
2019-02-15T11:13:06.577Z,5.40
2019-02-15T11:14:06.566Z,5.30
2019-02-15T11:15:06.581Z,5.00
2019-02-15T11:16:06.550Z,5.50
2019-02-15T11:17:06.542Z,5.70
2019-02-15T11:18:06.523Z,5.30
2019-02-15T11:19:06.510Z,5.40
2019-02-15T11:20:06.522Z,4.80
2019-02-15T11:21:06.490Z,6.80
2019-02-15T11:22:06.482Z,6.00
2019-02-15T11:23:06.468Z,5.30
2019-02-15T11:24:06.452Z,5.70
2019-02-15T11:25:06.477Z,5.10
2019-02-15T11:26:06.449Z,4.50
2019-02-15T11:27:06.418Z,5.30
2019-02-15T11:28:06.408Z,5.10
2019-02-15T11:29:06.397Z,5.10
2019-02-15T11:30:06.409Z,5.20
2019-02-15T11:31:06.373Z,5.20
2019-02-15T11:32:06.364Z,5.10
2019-02-15T11:33:06.351Z,5.10
2019-02-15T11:34:06.339Z,5.80
2019-02-15T11:35:06.355Z,5.40
2019-02-15T11:36:06.316Z,5.00
2019-02-15T11:37:06.307Z,5.80
2019-02-15T11:38:06.303Z,6.10
2019-02-15T11:39:06.284Z,5.60
2019-02-15T11:40:06.297Z,6.00
2019-02-15T11:41:11.182Z,5.80
2019-02-15T11:42:07.247Z,5.80
2019-02-15T11:43:06.241Z,7.20
2019-02-15T11:44:06.229Z,6.20
2019-02-15T11:45:06.250Z,6.10
2019-02-15T11:46:06.264Z,5.50
2019-02-15T11:47:06.193Z,5.90
2019-02-15T11:48:06.181Z,5.60
2019-02-15T11:49:06.171Z,6.00
2019-02-15T11:50:06.184Z,5.50
2019-02-15T11:51:06.147Z,6.20
2019-02-15T11:52:06.137Z,5.60
2019-02-15T11:53:06.128Z,5.50
2019-02-15T11:54:06.117Z,6.20
2019-02-15T11:55:06.128Z,5.50
2019-02-15T11:56:06.093Z,5.50
2019-02-15T11:57:06.080Z,5.60
2019-02-15T11:58:06.071Z,6.00
2019-02-15T11:59:06.059Z,5.20
2019-02-15T12:00:13.850Z,5.30
2019-02-15T12:01:07.034Z,5.20
2019-02-15T12:02:06.705Z,5.80
2019-02-15T12:03:06.014Z,6.40
2019-02-15T12:04:06.001Z,7.00
2019-02-15T12:05:06.017Z,6.20
2019-02-15T12:06:05.979Z,5.40
2019-02-15T12:07:05.966Z,6.10
2019-02-15T12:08:05.957Z,5.60
2019-02-15T12:09:05.943Z,4.80
2019-02-15T12:10:05.958Z,5.80
2019-02-15T12:11:05.922Z,5.70
2019-02-15T12:12:10.738Z,5.20
2019-02-15T12:13:06.899Z,5.50
2019-02-15T12:14:05.894Z,5.80
2019-02-15T12:15:05.876Z,6.00
2019-02-15T12:16:05.889Z,5.90
2019-02-15T12:17:06.040Z,5.00
2019-02-15T12:18:05.841Z,5.20
2019-02-15T12:19:05.956Z,5.10
2019-02-15T12:20:05.820Z,4.50
2019-02-15T12:21:05.834Z,5.50
2019-02-15T12:22:05.796Z,5.50
2019-02-15T12:23:05.788Z,5.50
2019-02-15T12:24:05.773Z,5.30
2019-02-15T12:25:05.764Z,5.40
2019-02-15T12:26:05.808Z,5.20
2019-02-15T12:27:05.760Z,5.40
2019-02-15T12:28:05.729Z,5.10
2019-02-15T12:29:05.717Z,4.70
2019-02-15T12:30:05.730Z,4.70
2019-02-15T12:31:05.694Z,4.70
2019-02-15T12:32:05.682Z,5.30
2019-02-15T12:33:05.673Z,5.00
2019-02-15T12:34:07.345Z,5.30
2019-02-15T12:35:05.652Z,5.30
2019-02-15T12:36:05.672Z,4.70
2019-02-15T12:37:05.631Z,4.60
2019-02-15T12:38:05.616Z,4.30
2019-02-15T12:39:05.605Z,4.40
2019-02-15T12:40:05.594Z,4.20
2019-02-15T12:41:05.609Z,4.40
2019-02-15T12:42:05.576Z,4.50
2019-02-15T12:43:05.560Z,4.40
2019-02-15T12:44:05.548Z,4.50
2019-02-15T12:45:05.536Z,4.50
2019-02-15T12:46:05.550Z,4.30
2019-02-15T12:47:14.508Z,4.40
2019-02-15T12:48:06.503Z,4.30
2019-02-15T12:49:05.499Z,3.60
2019-02-15T12:50:05.481Z,4.30
2019-02-15T12:51:05.989Z,3.70
2019-02-15T12:52:05.457Z,3.80
2019-02-15T12:53:05.447Z,3.60
2019-02-15T12:54:05.436Z,4.20
2019-02-15T12:55:05.428Z,3.90
2019-02-15T12:56:05.442Z,4.50
2019-02-15T12:57:05.400Z,3.90
2019-02-15T12:58:05.392Z,4.20
2019-02-15T12:59:05.391Z,3.80
2019-02-15T13:00:05.371Z,4.00
2019-02-15T13:01:05.383Z,4.00
2019-02-15T13:02:05.346Z,4.20
2019-02-15T13:03:05.338Z,3.60
2019-02-15T13:04:05.324Z,3.40
2019-02-15T13:05:05.310Z,3.60
2019-02-15T13:06:05.326Z,3.20
2019-02-15T13:07:05.288Z,3.10
2019-02-15T13:08:05.276Z,3.10
2019-02-15T13:09:05.269Z,3.20
2019-02-15T13:10:05.260Z,3.50
2019-02-15T13:11:05.267Z,3.20
2019-02-15T13:12:05.231Z,3.30
2019-02-15T13:13:05.225Z,2.90
2019-02-15T13:14:05.212Z,3.30
2019-02-15T13:15:05.196Z,3.10
2019-02-15T13:16:05.211Z,3.20
2019-02-15T13:17:05.175Z,3.30
2019-02-15T13:18:05.168Z,3.30